Bookmark and Share
Track history (hours):
 

Queen Isabella

Last reported at 2014-Apr-18 16:32 UTC. Time now 2014-Apr-20 08:46 UTC.
Position N 43°38' W 006°05'.

Length 131 m; draft 6.7 m.

Type: Ship. MMSI: 636090959.

NotesDate/timePositionNaut miles runAvg speedWind from/ knotsBaromVisibWave heightAir tempDewpointWater temp
2014-Apr-18 16:32N 43°38' W 006°05'6 0.4
2014-Apr-17 23:06N 43°36' W 005°57'5 9.9
2014-Apr-17 22:33N 43°38' W 006°04'34811.1
2014-Apr-16 15:20N 38°37' W 009°54'1214.9
2014-Apr-16 14:33N 38°37' W 009°39'1211.2
2014-Apr-16 13:29N 38°37' W 009°24'1112.3
2014-Apr-16 12:33N 38°42' W 009°10'5 5.1
2014-Apr-16 11:33N 38°41' W 009°04'0 0.0
2014-Apr-16 10:32N 38°41' W 009°04'0 0.0
2014-Apr-16 09:32N 38°41' W 009°04'0 0.0
2014-Apr-16 08:32N 38°41' W 009°04'0 0.0
2014-Apr-16 07:32N 38°41' W 009°04'0 0.0
2014-Apr-16 06:32N 38°41' W 009°04'0 0.0
2014-Apr-16 05:32N 38°41' W 009°04'0 0.0
2014-Apr-16 04:32N 38°41' W 009°04'0 0.0
2014-Apr-16 03:32N 38°41' W 009°04'2 2.1
2014-Apr-16 02:33N 38°41' W 009°06'8 8.3
2014-Apr-16 01:34N 38°41' W 009°17'5 0.9
2014-Apr-15 19:29N 38°40' W 009°23'0 0.0
2014-Apr-15 17:17N 38°40' W 009°23'1 1.6
2014-Apr-15 16:31N 38°39' W 009°24'1414.2
2014-Apr-15 15:33N 38°25' W 009°24'1414.3
2014-Apr-15 14:33N 38°11' W 009°25'14 7.2
2014-Apr-15 12:34N 37°56' W 009°25'1414.3
2014-Apr-15 11:34N 37°42' W 009°25'1414.1
2014-Apr-15 10:33N 37°28' W 009°26'5611.2
2014-Apr-15 05:33N 36°40' W 008°49'2814.2
2014-Apr-15 03:34N 36°45' W 008°15'1414.2
2014-Apr-15 02:33N 36°48' W 007°57'  
2014-Apr-12 18:11N 36°33' W 009°24'1015.0
2014-Apr-12 17:30N 36°41' W 009°33'1714.4
2014-Apr-12 16:20N 36°56' W 009°41'1214.9
2014-Apr-12 15:33N 37°07' W 009°44'1614.8
2014-Apr-12 14:30N 37°23' W 009°49'1415.0
2014-Apr-12 13:32N 37°37' W 009°52'1514.5
2014-Apr-12 12:30N 37°51' W 009°57'38810.8
2014-Apr-11 00:30N 43°40' W 006°11'345 6.7
2014-Apr-08 21:20N 38°37' W 009°49'2413.2
2014-Apr-08 19:33N 38°40' W 009°19'1110.9
2014-Apr-08 18:33N 38°41' W 009°05'1 1.3
2014-Apr-08 17:32N 38°41' W 009°04'0 0.0
2014-Apr-08 16:32N 38°41' W 009°04'  

Dump ship's entire track history

sailing weather and tide predictions

Queen Isabella — A8IE2 — position and weather